createdAt,value
2022-10-20T00:02:04.379Z,8.99
2022-10-20T00:04:33.966Z,9.40
2022-10-20T00:07:01.980Z,9.65
2022-10-20T00:09:29.990Z,9.25
2022-10-20T00:11:58.064Z,9.06
2022-10-20T00:14:26.076Z,9.29
2022-10-20T00:16:54.035Z,9.43
2022-10-20T00:19:22.044Z,9.45
2022-10-20T00:21:51.402Z,9.30
2022-10-20T00:24:20.872Z,9.10
2022-10-20T00:26:48.992Z,9.15
2022-10-20T00:31:45.944Z,9.38
2022-10-20T00:34:13.937Z,9.19
2022-10-20T00:36:41.991Z,9.43
2022-10-20T00:39:11.389Z,9.43
2022-10-20T00:41:39.370Z,8.98
2022-10-20T00:44:40.492Z,9.21
2022-10-20T00:47:11.576Z,9.35
2022-10-20T00:49:40.386Z,9.40
2022-10-20T00:52:09.350Z,9.66
2022-10-20T00:54:39.104Z,9.52
2022-10-20T00:57:07.567Z,9.04
2022-10-20T00:59:38.390Z,9.12
2022-10-20T01:02:08.249Z,9.22
2022-10-20T01:04:38.399Z,9.07
2022-10-20T01:07:07.039Z,9.21
2022-10-20T01:09:35.451Z,9.29
2022-10-20T01:12:12.183Z,9.35
2022-10-20T01:14:48.272Z,9.24
2022-10-20T01:17:27.233Z,9.00
2022-10-20T01:20:21.753Z,9.17
2022-10-20T01:23:35.534Z,9.10
2022-10-20T01:26:43.814Z,9.01
2022-10-20T01:29:17.410Z,8.84
2022-10-20T01:31:50.796Z,8.68
2022-10-20T01:34:28.085Z,8.38
2022-10-20T01:37:01.399Z,8.35
2022-10-20T01:39:34.408Z,8.17
2022-10-20T01:42:07.310Z,8.07
2022-10-20T01:44:39.772Z,7.95
2022-10-20T01:47:10.087Z,8.28
2022-10-20T01:49:38.492Z,8.34
2022-10-20T01:52:06.595Z,8.25
2022-10-20T01:54:34.635Z,8.10
2022-10-20T01:57:18.324Z,8.30
2022-10-20T02:00:02.569Z,7.85
2022-10-20T02:03:11.016Z,7.67
2022-10-20T02:05:54.188Z,7.67
2022-10-20T02:08:31.595Z,7.23
2022-10-20T02:11:02.845Z,7.25
2022-10-20T02:13:31.942Z,7.16
2022-10-20T02:16:06.005Z,7.16
2022-10-20T02:18:40.450Z,7.16
2022-10-20T02:21:09.319Z,7.46
2022-10-20T02:23:39.951Z,7.59
2022-10-20T02:26:10.752Z,7.68
2022-10-20T02:28:41.993Z,7.38
2022-10-20T02:31:11.972Z,7.48
2022-10-20T02:33:41.377Z,7.52
2022-10-20T02:36:16.704Z,7.12
2022-10-20T02:38:45.194Z,7.11
2022-10-20T02:41:13.470Z,6.71
2022-10-20T02:43:41.475Z,7.01
2022-10-20T02:46:09.462Z,6.79
2022-10-20T02:48:39.350Z,6.69
2022-10-20T02:51:07.517Z,6.61
2022-10-20T02:53:35.510Z,6.75
2022-10-20T02:56:03.478Z,6.85
2022-10-20T02:58:31.499Z,7.04
2022-10-20T03:00:59.560Z,6.75
2022-10-20T03:03:27.659Z,6.93
2022-10-20T03:05:57.138Z,6.62
2022-10-20T03:08:25.122Z,6.46
2022-10-20T03:10:53.123Z,6.69
2022-10-20T03:13:21.107Z,6.48
2022-10-20T03:15:49.117Z,6.73
2022-10-20T03:18:17.053Z,7.00
2022-10-20T03:20:45.349Z,6.93
2022-10-20T03:23:17.695Z,6.65
2022-10-20T03:25:48.101Z,6.49
2022-10-20T03:28:16.048Z,6.57
2022-10-20T03:30:44.059Z,6.72
2022-10-20T03:33:12.041Z,6.42
2022-10-20T03:35:40.079Z,7.25
2022-10-20T03:38:08.012Z,7.53
2022-10-20T03:40:37.365Z,7.56
2022-10-20T03:43:05.428Z,7.21
2022-10-20T03:45:33.468Z,7.02
2022-10-20T03:48:01.383Z,6.83
2022-10-20T03:50:29.360Z,6.72
2022-10-20T03:52:57.340Z,6.81
2022-10-20T03:55:25.303Z,6.85
2022-10-20T03:57:54.718Z,6.63
2022-10-20T04:00:22.704Z,6.64
2022-10-20T04:02:51.486Z,6.75
2022-10-20T04:05:21.434Z,6.92
2022-10-20T04:07:49.508Z,6.78
2022-10-20T04:10:17.855Z,6.90
2022-10-20T04:12:45.918Z,7.15
2022-10-20T04:15:15.489Z,7.12
2022-10-20T04:17:43.452Z,6.98
2022-10-20T04:20:11.908Z,6.53
2022-10-20T04:22:40.628Z,6.52
2022-10-20T04:25:09.378Z,6.81
2022-10-20T04:27:37.601Z,6.67
2022-10-20T04:30:06.825Z,7.03
2022-10-20T04:32:36.264Z,7.33
2022-10-20T04:35:04.524Z,7.27
2022-10-20T04:37:32.554Z,7.14
2022-10-20T04:40:00.502Z,7.25
2022-10-20T04:42:28.481Z,7.37
2022-10-20T04:47:33.073Z,7.18
2022-10-20T04:50:02.468Z,7.52
2022-10-20T04:52:30.544Z,7.82
2022-10-20T04:54:58.550Z,7.50
2022-10-20T04:57:26.556Z,7.22
2022-10-20T04:59:54.679Z,7.69
2022-10-20T05:02:22.601Z,7.63
2022-10-20T05:04:50.562Z,7.69
2022-10-20T05:07:19.921Z,7.65
2022-10-20T05:09:49.246Z,7.64
2022-10-20T05:12:17.211Z,7.64
2022-10-20T05:14:45.157Z,7.49
2022-10-20T05:17:13.107Z,7.25
2022-10-20T05:19:41.029Z,7.55
2022-10-20T05:22:08.977Z,7.55
2022-10-20T05:24:38.630Z,7.60
2022-10-20T05:27:06.680Z,7.18
2022-10-20T05:29:34.685Z,7.05
2022-10-20T05:32:02.694Z,7.29
2022-10-20T05:34:30.710Z,7.29
2022-10-20T05:36:58.783Z,7.32
2022-10-20T05:39:26.723Z,7.40
2022-10-20T05:41:56.146Z,7.51
2022-10-20T05:44:24.149Z,7.68
2022-10-20T05:46:52.101Z,7.84
2022-10-20T05:49:20.205Z,7.87
2022-10-20T05:51:48.460Z,7.97
2022-10-20T05:54:16.900Z,7.83
2022-10-20T05:56:45.417Z,7.64
2022-10-20T05:59:15.106Z,7.61
2022-10-20T06:01:49.040Z,7.35
2022-10-20T06:04:18.942Z,7.58
2022-10-20T06:06:48.992Z,7.31
2022-10-20T06:09:17.790Z,7.63
2022-10-20T06:11:45.941Z,7.83
2022-10-20T06:14:15.938Z,7.96
2022-10-20T06:16:44.217Z,7.91
2022-10-20T06:19:12.223Z,8.11
2022-10-20T06:21:40.296Z,7.99
2022-10-20T06:24:08.610Z,8.35
2022-10-20T06:26:37.785Z,8.42
2022-10-20T06:29:07.470Z,8.42
2022-10-20T06:31:39.196Z,8.54
2022-10-20T06:34:08.421Z,8.53
2022-10-20T06:36:37.899Z,8.54
2022-10-20T06:39:07.905Z,8.58
2022-10-20T06:41:36.385Z,8.49
2022-10-20T06:44:05.067Z,8.72
2022-10-20T06:46:35.247Z,8.82
2022-10-20T06:49:06.439Z,8.93
2022-10-20T06:51:35.135Z,9.05
2022-10-20T06:54:03.652Z,8.63
2022-10-20T06:56:33.946Z,8.70
2022-10-20T06:59:02.805Z,8.91
2022-10-20T07:01:32.678Z,8.82
2022-10-20T07:04:02.828Z,8.84
2022-10-20T07:06:34.342Z,8.91
2022-10-20T07:09:04.277Z,9.25
2022-10-20T07:11:33.235Z,9.43
2022-10-20T07:14:03.210Z,9.66
2022-10-20T07:16:33.657Z,9.72
2022-10-20T07:19:02.160Z,9.74
2022-10-20T07:21:36.017Z,9.81
2022-10-20T07:24:07.369Z,9.85
2022-10-20T07:26:36.590Z,9.77
2022-10-20T07:29:05.829Z,9.82
2022-10-20T07:31:36.648Z,10.13
2022-10-20T07:34:14.038Z,10.28
2022-10-20T07:36:54.240Z,10.38
2022-10-20T07:39:22.362Z,10.45
2022-10-20T07:41:50.373Z,10.58
2022-10-20T07:44:18.881Z,10.64
2022-10-20T07:46:46.875Z,10.62
2022-10-20T07:52:04.423Z,10.78
2022-10-20T07:54:32.878Z,10.78
2022-10-20T07:57:00.991Z,10.94
2022-10-20T07:59:29.702Z,11.04
2022-10-20T08:01:59.806Z,11.14
2022-10-20T08:04:28.934Z,11.28
2022-10-20T08:06:56.947Z,11.30
2022-10-20T08:09:26.378Z,11.39
2022-10-20T08:11:55.866Z,11.50
2022-10-20T08:14:27.032Z,11.62
2022-10-20T08:17:02.644Z,11.77
2022-10-20T08:19:44.663Z,11.80
2022-10-20T08:22:13.084Z,11.69
2022-10-20T08:24:42.378Z,11.81
2022-10-20T08:27:10.421Z,11.81
2022-10-20T08:29:38.571Z,11.90
2022-10-20T08:32:07.071Z,11.91
2022-10-20T08:34:35.063Z,12.04
2022-10-20T08:37:03.029Z,12.17
2022-10-20T08:39:31.240Z,12.13
2022-10-20T08:42:09.563Z,12.17
2022-10-20T08:44:39.692Z,11.96
2022-10-20T08:47:29.359Z,12.14
2022-10-20T08:50:01.129Z,12.38
2022-10-20T08:52:29.509Z,12.38
2022-10-20T08:54:58.960Z,12.43
2022-10-20T08:57:33.399Z,12.27
2022-10-20T09:00:15.261Z,12.43
2022-10-20T09:02:43.549Z,12.45
2022-10-20T09:05:16.668Z,12.65
2022-10-20T09:07:48.519Z,12.61
2022-10-20T09:10:26.465Z,12.33
2022-10-20T09:12:56.093Z,12.29
2022-10-20T09:15:26.644Z,12.44
2022-10-20T09:17:57.020Z,12.54
2022-10-20T09:20:30.529Z,12.51
2022-10-20T09:23:01.335Z,12.50
2022-10-20T09:25:32.484Z,12.55
2022-10-20T09:28:01.989Z,12.40
2022-10-20T09:30:35.451Z,12.73
2022-10-20T09:33:22.081Z,12.75
2022-10-20T09:35:51.581Z,12.48
2022-10-20T09:38:23.979Z,12.62
2022-10-20T09:41:08.162Z,12.89
2022-10-20T09:43:40.918Z,12.89
2022-10-20T09:46:12.273Z,13.04
2022-10-20T09:48:43.784Z,13.07
2022-10-20T09:51:16.257Z,13.07
2022-10-20T09:53:53.660Z,12.68
2022-10-20T09:56:27.055Z,13.09
2022-10-20T09:58:57.777Z,13.35
2022-10-20T10:01:25.894Z,13.23
2022-10-20T10:03:56.829Z,13.45
2022-10-20T10:06:41.524Z,13.45
2022-10-20T10:09:28.840Z,13.20
2022-10-20T10:12:02.324Z,13.31
2022-10-20T10:14:34.340Z,13.58
2022-10-20T10:17:02.761Z,13.57
2022-10-20T10:19:32.493Z,13.53
2022-10-20T10:22:02.989Z,13.32
2022-10-20T10:24:49.937Z,13.33
2022-10-20T10:27:25.165Z,13.72
2022-10-20T10:29:54.973Z,13.66
2022-10-20T10:32:26.013Z,13.78
2022-10-20T10:35:20.395Z,13.68
2022-10-20T10:37:49.727Z,13.77
2022-10-20T10:40:19.986Z,13.55
2022-10-20T10:43:22.266Z,13.81
2022-10-20T10:45:54.077Z,13.75
2022-10-20T10:48:40.764Z,14.05
2022-10-20T10:51:12.048Z,13.65
2022-10-20T10:53:56.927Z,13.84
2022-10-20T10:56:32.996Z,13.95
2022-10-20T10:59:07.815Z,13.99
2022-10-20T11:02:00.700Z,14.02
2022-10-20T11:05:01.433Z,14.18
2022-10-20T11:07:37.759Z,14.37
2022-10-20T11:10:11.975Z,14.25
2022-10-20T11:12:57.545Z,14.18
2022-10-20T11:15:40.776Z,14.18
2022-10-20T11:18:18.550Z,14.50
2022-10-20T11:20:57.150Z,14.35
2022-10-20T11:23:54.884Z,14.51
2022-10-20T11:26:44.839Z,14.34
2022-10-20T11:29:17.857Z,14.38
2022-10-20T11:31:54.574Z,14.60
2022-10-20T11:34:31.407Z,14.60
2022-10-20T11:37:07.079Z,14.67
2022-10-20T11:39:41.743Z,14.98
2022-10-20T11:42:21.758Z,15.08
2022-10-20T11:44:50.559Z,15.07
2022-10-20T11:47:24.875Z,15.09
2022-10-20T11:49:54.543Z,15.40
2022-10-20T11:52:48.517Z,15.80
2022-10-20T11:55:31.806Z,16.76
2022-10-20T11:58:19.138Z,17.39
2022-10-20T12:01:01.249Z,18.85
2022-10-20T12:04:00.571Z,19.76
2022-10-20T12:07:02.192Z,20.70
2022-10-20T12:09:45.918Z,22.14
2022-10-20T12:12:18.230Z,21.61
2022-10-20T12:14:51.080Z,22.12
2022-10-20T12:17:27.985Z,22.04
2022-10-20T12:20:37.993Z,22.33
2022-10-20T12:23:07.452Z,22.91
2022-10-20T12:25:42.170Z,22.14
2022-10-20T12:28:49.920Z,21.84
2022-10-20T12:31:17.915Z,21.83
2022-10-20T12:34:01.734Z,21.91
2022-10-20T12:36:35.698Z,21.92
2022-10-20T12:39:17.767Z,21.17
2022-10-20T12:41:57.554Z,20.82
2022-10-20T12:44:26.780Z,21.19
2022-10-20T12:46:58.340Z,21.19
2022-10-20T12:49:31.679Z,21.27
2022-10-20T12:52:00.756Z,21.25
2022-10-20T12:54:36.318Z,20.53
2022-10-20T12:57:25.169Z,20.70
2022-10-20T12:59:53.264Z,19.98
2022-10-20T13:02:33.938Z,19.33
2022-10-20T13:05:05.432Z,19.25
2022-10-20T13:08:10.873Z,19.15
2022-10-20T13:10:40.480Z,19.24
2022-10-20T13:13:44.146Z,19.24
2022-10-20T13:16:22.088Z,19.25
2022-10-20T13:18:51.702Z,19.31
2022-10-20T13:21:27.032Z,19.44
2022-10-20T13:24:10.365Z,18.42
2022-10-20T13:26:49.156Z,18.77
2022-10-20T13:29:25.884Z,19.38
2022-10-20T13:34:45.910Z,18.74
2022-10-20T13:37:51.429Z,18.54
2022-10-20T13:40:30.973Z,18.77
2022-10-20T13:43:13.380Z,18.66
2022-10-20T13:45:56.433Z,18.70
2022-10-20T13:48:42.006Z,18.46
2022-10-20T13:51:19.782Z,17.94
2022-10-20T13:53:52.639Z,18.76
2022-10-20T13:56:28.996Z,18.98
2022-10-20T13:59:05.636Z,19.10
2022-10-20T14:01:36.147Z,18.50
2022-10-20T14:04:20.296Z,18.59
2022-10-20T14:06:48.704Z,18.83
2022-10-20T14:09:20.469Z,18.95
2022-10-20T14:11:51.673Z,18.61
2022-10-20T14:14:24.936Z,18.50
2022-10-20T14:16:55.687Z,18.16
2022-10-20T14:19:28.023Z,17.97
2022-10-20T14:21:57.609Z,17.92
2022-10-20T14:24:31.389Z,18.09
2022-10-20T14:27:00.774Z,18.62
2022-10-20T14:29:33.446Z,18.11
2022-10-20T14:32:01.803Z,18.30
2022-10-20T14:34:34.467Z,17.78
2022-10-20T14:37:03.700Z,17.78
2022-10-20T14:39:37.613Z,17.86
2022-10-20T14:42:15.907Z,17.52
2022-10-20T14:44:46.109Z,17.51
2022-10-20T14:47:15.833Z,17.42
2022-10-20T14:49:48.975Z,17.12
2022-10-20T14:52:22.912Z,17.43
2022-10-20T14:54:52.091Z,16.87
2022-10-20T14:57:45.990Z,16.57
2022-10-20T15:00:34.539Z,16.67
2022-10-20T15:03:07.008Z,17.05
2022-10-20T15:05:39.907Z,16.69
2022-10-20T15:08:17.759Z,16.91
2022-10-20T15:10:46.145Z,16.92
2022-10-20T15:13:27.964Z,16.62
2022-10-20T15:15:58.877Z,16.49
2022-10-20T15:18:27.748Z,16.50
2022-10-20T15:20:56.854Z,16.04
2022-10-20T15:23:27.017Z,15.83
2022-10-20T15:25:59.181Z,15.86
2022-10-20T15:28:33.329Z,15.74
2022-10-20T15:31:04.937Z,15.45
2022-10-20T15:33:33.153Z,15.42
2022-10-20T15:36:01.931Z,14.90
2022-10-20T15:38:30.042Z,14.93
2022-10-20T15:43:28.665Z,14.49
2022-10-20T15:45:56.710Z,14.62
2022-10-20T15:48:26.239Z,14.10
2022-10-20T15:50:54.618Z,13.87
2022-10-20T15:53:22.596Z,13.82
2022-10-20T15:55:50.783Z,13.78
2022-10-20T15:58:18.761Z,13.59
2022-10-20T16:00:46.778Z,13.34
2022-10-20T16:03:18.149Z,13.30
2022-10-20T16:05:48.075Z,13.22
2022-10-20T16:08:16.127Z,12.92
2022-10-20T16:10:44.237Z,12.86
2022-10-20T16:13:12.610Z,12.86
2022-10-20T16:15:40.683Z,12.69
2022-10-20T16:18:09.903Z,12.23
2022-10-20T16:20:38.273Z,12.34
2022-10-20T16:23:07.807Z,12.18
2022-10-20T16:25:35.790Z,12.18
2022-10-20T16:28:03.750Z,12.15
2022-10-20T16:30:31.752Z,11.99
2022-10-20T16:32:59.723Z,11.91
2022-10-20T16:35:27.860Z,11.75
2022-10-20T16:50:19.064Z,11.58
2022-10-20T16:52:47.074Z,11.39
2022-10-20T16:55:15.037Z,11.14
2022-10-20T16:57:43.000Z,11.24
2022-10-20T17:00:12.107Z,11.17
2022-10-20T17:02:42.957Z,10.99
2022-10-20T17:05:11.312Z,10.84
2022-10-20T17:07:40.870Z,10.69
2022-10-20T17:10:10.818Z,10.43
2022-10-20T17:12:38.917Z,10.57
2022-10-20T17:15:07.710Z,10.50
2022-10-20T17:17:35.991Z,10.50
2022-10-20T17:20:04.577Z,10.58
2022-10-20T17:22:32.729Z,10.62
2022-10-20T17:25:02.173Z,10.39
2022-10-20T17:27:30.135Z,10.01
2022-10-20T17:29:58.077Z,10.15
2022-10-20T17:32:26.099Z,10.27
2022-10-20T17:34:54.028Z,10.23
2022-10-20T17:37:22.010Z,10.13
2022-10-20T17:39:49.973Z,10.02
2022-10-20T17:42:19.353Z,10.00
2022-10-20T17:44:47.278Z,9.84
2022-10-20T17:47:15.251Z,10.04
2022-10-20T17:49:43.264Z,9.76
2022-10-20T17:52:11.320Z,9.93
2022-10-20T17:54:39.278Z,10.00
2022-10-20T17:57:07.281Z,10.11
2022-10-20T17:59:47.309Z,10.02
2022-10-20T18:02:23.747Z,10.03
2022-10-20T18:04:52.150Z,9.78
2022-10-20T18:07:20.158Z,9.73
2022-10-20T18:09:48.261Z,9.84
2022-10-20T18:12:16.251Z,9.49
2022-10-20T18:14:45.673Z,9.63
2022-10-20T18:17:13.892Z,9.47
2022-10-20T18:19:42.024Z,9.51
2022-10-20T18:22:10.002Z,9.51
2022-10-20T18:24:37.999Z,9.33
2022-10-20T18:27:06.722Z,9.23
2022-10-20T18:29:34.762Z,9.05
2022-10-20T18:32:04.238Z,9.26
2022-10-20T18:34:32.197Z,9.11
2022-10-20T18:37:03.451Z,9.10
2022-10-20T18:39:32.578Z,9.09
2022-10-20T18:42:00.807Z,9.18
2022-10-20T18:47:04.564Z,9.16
2022-10-20T18:49:32.561Z,9.07
2022-10-20T18:52:00.577Z,8.75
2022-10-20T18:54:28.573Z,8.79
2022-10-20T18:56:56.573Z,8.94
2022-10-20T18:59:24.612Z,9.00
2022-10-20T19:01:52.575Z,8.92
2022-10-20T19:04:21.901Z,8.89
2022-10-20T19:06:50.138Z,8.87
2022-10-20T19:09:20.129Z,8.68
2022-10-20T19:14:22.093Z,8.59
2022-10-20T19:16:50.267Z,8.62
2022-10-20T19:19:18.335Z,8.71
2022-10-20T19:21:47.745Z,8.55
2022-10-20T19:24:20.536Z,8.41
2022-10-20T19:26:57.484Z,8.30
2022-10-20T19:29:30.689Z,8.34
2022-10-20T19:32:00.547Z,8.39
2022-10-20T19:34:30.949Z,8.49
2022-10-20T19:37:00.888Z,8.31
2022-10-20T19:39:32.268Z,8.36
2022-10-20T19:42:01.807Z,8.39
2022-10-20T19:44:30.291Z,8.36
2022-10-20T19:46:58.416Z,8.28
2022-10-20T19:49:27.514Z,8.41
2022-10-20T19:51:55.588Z,8.45
2022-10-20T19:54:24.973Z,8.41
2022-10-20T19:56:53.117Z,8.28
2022-10-20T19:59:21.268Z,8.27
2022-10-20T20:01:50.019Z,8.28
2022-10-20T20:04:18.146Z,8.21
2022-10-20T20:06:46.077Z,8.16
2022-10-20T20:09:15.824Z,8.13
2022-10-20T20:11:45.772Z,8.18
2022-10-20T20:14:16.285Z,8.08
2022-10-20T20:16:46.023Z,8.10
2022-10-20T20:19:15.662Z,8.21
2022-10-20T20:21:43.854Z,8.21
2022-10-20T20:24:14.210Z,7.95
2022-10-20T20:26:42.272Z,7.89
2022-10-20T20:29:11.893Z,8.01
2022-10-20T20:31:40.017Z,8.02
2022-10-20T20:34:07.994Z,7.82
2022-10-20T20:36:35.967Z,7.82
2022-10-20T20:39:03.966Z,7.67
2022-10-20T20:41:31.973Z,7.64
2022-10-20T20:44:04.174Z,7.63
2022-10-20T20:46:36.414Z,7.56
2022-10-20T20:49:04.663Z,7.64
2022-10-20T20:51:34.042Z,7.56
2022-10-20T20:54:03.202Z,7.39
2022-10-20T20:56:31.334Z,7.35
2022-10-20T20:58:59.366Z,7.25
2022-10-20T21:01:28.617Z,7.25
2022-10-20T21:03:59.606Z,7.46
2022-10-20T21:06:33.822Z,7.41
2022-10-20T21:09:07.027Z,7.32
2022-10-20T21:11:35.126Z,7.43
2022-10-20T21:14:03.516Z,7.39
2022-10-20T21:16:33.197Z,7.37
2022-10-20T21:19:04.591Z,7.32
2022-10-20T21:21:34.868Z,7.11
2022-10-20T21:24:04.407Z,7.17
2022-10-20T21:26:33.551Z,6.99
2022-10-20T21:29:01.513Z,7.08
2022-10-20T21:31:30.712Z,7.13
2022-10-20T21:33:59.889Z,7.15
2022-10-20T21:36:31.496Z,7.07
2022-10-20T21:38:59.610Z,7.05
2022-10-20T21:41:29.507Z,7.13
2022-10-20T21:43:59.344Z,6.87
2022-10-20T21:46:29.384Z,6.73
2022-10-20T21:49:01.114Z,6.92
2022-10-20T21:51:32.463Z,6.95
2022-10-20T21:54:02.443Z,6.75
2022-10-20T21:56:33.152Z,6.83
2022-10-20T21:59:01.135Z,6.88
2022-10-20T22:01:29.278Z,6.82
2022-10-20T22:03:57.677Z,6.82
2022-10-20T22:06:27.971Z,6.97
2022-10-20T22:08:59.683Z,6.88
2022-10-20T22:11:29.751Z,6.67
2022-10-20T22:13:58.731Z,6.56
2022-10-20T22:16:28.991Z,6.51
2022-10-20T22:18:57.487Z,6.71
2022-10-20T22:21:25.673Z,6.53
2022-10-20T22:23:54.565Z,6.49
2022-10-20T22:26:25.759Z,6.50
2022-10-20T22:28:54.134Z,6.53
2022-10-20T22:31:23.073Z,6.32
2022-10-20T22:33:51.959Z,6.31
2022-10-20T22:36:20.193Z,6.30
2022-10-20T22:38:48.256Z,6.44
2022-10-20T22:41:16.257Z,6.36
2022-10-20T22:43:45.582Z,6.23
2022-10-20T22:46:13.586Z,6.00
2022-10-20T22:48:41.559Z,6.02
2022-10-20T22:51:10.967Z,6.06
2022-10-20T22:53:39.706Z,6.05
2022-10-20T22:56:09.699Z,6.08
2022-10-20T22:58:37.736Z,5.77
2022-10-20T23:01:11.258Z,6.04
2022-10-20T23:03:40.314Z,6.06
2022-10-20T23:06:09.507Z,6.03
2022-10-20T23:08:43.180Z,6.12
2022-10-20T23:11:11.489Z,6.02
2022-10-20T23:13:39.519Z,5.99
2022-10-20T23:16:08.130Z,6.06
2022-10-20T23:18:37.780Z,6.05
2022-10-20T23:21:06.867Z,6.00
2022-10-20T23:23:37.884Z,6.00
2022-10-20T23:26:07.059Z,5.98
2022-10-20T23:28:35.557Z,5.93
2022-10-20T23:31:09.334Z,5.98
2022-10-20T23:33:39.467Z,5.78
2022-10-20T23:36:08.217Z,5.84
2022-10-20T23:38:36.267Z,5.88
2022-10-20T23:41:05.175Z,5.89
2022-10-20T23:43:33.680Z,5.86
2022-10-20T23:46:01.775Z,5.88
2022-10-20T23:48:30.065Z,5.94
2022-10-20T23:50:59.427Z,5.88
2022-10-20T23:53:27.809Z,5.96
2022-10-20T23:55:55.773Z,5.89
2022-10-20T23:58:23.838Z,5.93
